createdAt,value
2023-05-24T00:01:30.319Z,1.77
2023-05-24T00:04:02.210Z,1.70
2023-05-24T00:06:30.909Z,1.70
2023-05-24T00:08:59.978Z,1.83
2023-05-24T00:11:28.827Z,1.83
2023-05-24T00:13:58.788Z,1.83
2023-05-24T00:16:27.169Z,1.77
2023-05-24T00:18:55.366Z,2.08
2023-05-24T00:21:25.518Z,1.67
2023-05-24T00:23:53.984Z,2.38
2023-05-24T00:26:22.046Z,1.90
2023-05-24T00:28:56.711Z,2.20
2023-05-24T00:31:24.709Z,2.05
2023-05-24T00:33:52.546Z,1.65
2023-05-24T00:36:20.538Z,2.20
2023-05-24T00:38:49.478Z,2.17
2023-05-24T00:41:17.688Z,2.20
2023-05-24T00:43:46.014Z,2.10
2023-05-24T00:46:17.537Z,1.60
2023-05-24T00:48:46.604Z,1.80
2023-05-24T00:51:15.341Z,1.98
2023-05-24T00:53:47.225Z,1.58
2023-05-24T00:56:16.626Z,1.92
2023-05-24T00:58:45.685Z,2.05
2023-05-24T01:01:14.703Z,1.65
2023-05-24T01:03:43.741Z,1.95
2023-05-24T01:06:20.741Z,1.85
2023-05-24T01:09:19.098Z,2.10
2023-05-24T01:12:45.405Z,2.20
2023-05-24T01:15:16.058Z,1.92
2023-05-24T01:18:03.416Z,1.90
2023-05-24T01:20:34.746Z,1.98
2023-05-24T01:23:26.439Z,1.80
2023-05-24T01:26:19.259Z,1.98
2023-05-24T01:28:49.070Z,1.70
2023-05-24T01:31:18.937Z,1.70
2023-05-24T01:33:50.643Z,1.65
2023-05-24T01:36:21.374Z,1.60
2023-05-24T01:38:50.471Z,1.58
2023-05-24T01:41:21.921Z,2.08
2023-05-24T01:44:16.331Z,2.10
2023-05-24T01:46:50.512Z,1.88
2023-05-24T01:49:29.835Z,2.13
2023-05-24T01:52:12.234Z,1.60
2023-05-24T01:54:44.128Z,2.35
2023-05-24T01:57:12.501Z,2.42
2023-05-24T01:59:42.839Z,2.13
2023-05-24T02:02:11.865Z,1.85
2023-05-24T02:04:41.466Z,2.33
2023-05-24T02:07:09.612Z,1.30
2023-05-24T02:09:39.078Z,1.27
2023-05-24T02:12:08.245Z,1.88
2023-05-24T02:14:38.350Z,2.33
2023-05-24T02:17:08.065Z,2.00
2023-05-24T02:19:37.679Z,1.92
2023-05-24T02:22:07.789Z,2.50
2023-05-24T02:24:37.313Z,4.78
2023-05-24T02:27:05.509Z,2.10
2023-05-24T02:29:33.801Z,1.67
2023-05-24T02:32:01.774Z,3.85
2023-05-24T02:34:29.653Z,2.45
2023-05-24T02:36:57.730Z,2.58
2023-05-24T02:39:26.003Z,2.40
2023-05-24T02:41:53.969Z,3.92
2023-05-24T02:44:22.001Z,3.33
2023-05-24T02:46:50.176Z,2.67
2023-05-24T02:49:18.709Z,2.63
2023-05-24T02:51:47.004Z,3.05
2023-05-24T02:54:15.070Z,2.40
2023-05-24T02:56:43.203Z,3.30
2023-05-24T02:59:11.640Z,3.03
2023-05-24T03:01:40.780Z,2.83
2023-05-24T03:04:09.171Z,2.40
2023-05-24T03:06:38.382Z,2.20
2023-05-24T03:09:06.403Z,3.08
2023-05-24T03:11:35.192Z,2.25
2023-05-24T03:14:03.608Z,3.28
2023-05-24T03:16:32.287Z,2.33
2023-05-24T03:19:00.750Z,2.17
2023-05-24T03:21:29.412Z,2.22
2023-05-24T03:23:58.030Z,2.60
2023-05-24T03:26:27.235Z,3.00
2023-05-24T03:28:55.388Z,2.60
2023-05-24T03:31:30.104Z,3.28
2023-05-24T03:33:58.988Z,2.40
2023-05-24T03:36:29.350Z,2.60
2023-05-24T03:38:58.597Z,2.13
2023-05-24T03:41:28.548Z,3.00
2023-05-24T03:44:01.302Z,2.33
2023-05-24T03:46:31.920Z,2.45
2023-05-24T03:49:04.575Z,2.88
2023-05-24T03:51:32.657Z,2.17
2023-05-24T03:54:00.480Z,2.08
2023-05-24T03:56:28.684Z,3.33
2023-05-24T03:59:01.004Z,2.63
2023-05-24T04:05:11.133Z,2.40
2023-05-24T04:07:40.436Z,3.25
2023-05-24T04:10:09.054Z,3.80
2023-05-24T04:12:38.127Z,3.05
2023-05-24T04:15:08.275Z,2.78
2023-05-24T04:17:36.553Z,3.15
2023-05-24T04:20:06.163Z,3.95
2023-05-24T04:22:36.243Z,2.75
2023-05-24T04:25:05.268Z,2.80
2023-05-24T04:27:34.118Z,3.42
2023-05-24T04:30:02.314Z,3.42
2023-05-24T04:32:30.729Z,2.90
2023-05-24T04:34:58.946Z,2.95
2023-05-24T04:37:27.877Z,2.50
2023-05-24T04:39:56.112Z,2.85
2023-05-24T04:42:23.916Z,3.28
2023-05-24T04:44:52.389Z,3.85
2023-05-24T04:47:21.030Z,3.40
2023-05-24T04:49:49.707Z,3.63
2023-05-24T04:52:18.457Z,3.22
2023-05-24T04:54:46.558Z,3.97
2023-05-24T04:57:14.677Z,3.08
2023-05-24T04:59:42.976Z,3.22
2023-05-24T05:02:11.080Z,3.50
2023-05-24T05:04:39.120Z,3.22
2023-05-24T05:07:07.510Z,3.72
2023-05-24T05:09:35.723Z,3.88
2023-05-24T05:12:03.608Z,3.58
2023-05-24T05:14:31.690Z,3.47
2023-05-24T05:17:00.228Z,2.58
2023-05-24T05:19:28.351Z,3.22
2023-05-24T05:21:56.500Z,2.55
2023-05-24T05:24:24.611Z,3.85
2023-05-24T05:26:52.964Z,3.30
2023-05-24T05:29:21.749Z,3.10
2023-05-24T05:31:51.659Z,3.72
2023-05-24T05:34:21.409Z,3.22
2023-05-24T05:36:49.495Z,2.88
2023-05-24T05:39:17.800Z,3.65
2023-05-24T05:41:46.626Z,3.35
2023-05-24T05:44:15.373Z,3.75
2023-05-24T05:46:46.546Z,5.30
2023-05-24T05:49:16.089Z,2.90
2023-05-24T05:51:44.682Z,3.58
2023-05-24T05:54:18.477Z,3.45
2023-05-24T05:56:48.346Z,4.43
2023-05-24T05:59:17.083Z,3.20
2023-05-24T06:01:49.475Z,3.67
2023-05-24T06:04:18.160Z,3.75
2023-05-24T06:06:49.960Z,3.28
2023-05-24T06:09:18.255Z,3.67
2023-05-24T06:11:46.320Z,3.42
2023-05-24T06:14:18.577Z,3.50
2023-05-24T06:16:48.132Z,3.85
2023-05-24T06:19:17.157Z,3.80
2023-05-24T06:21:48.674Z,4.72
2023-05-24T06:26:52.918Z,3.60
2023-05-24T06:29:22.219Z,3.15
2023-05-24T06:31:50.859Z,4.45
2023-05-24T06:34:21.719Z,3.60
2023-05-24T06:36:51.907Z,4.25
2023-05-24T06:39:20.134Z,3.83
2023-05-24T06:41:48.660Z,3.85
2023-05-24T06:44:16.697Z,3.35
2023-05-24T06:46:45.238Z,3.05
2023-05-24T06:49:13.728Z,3.08
2023-05-24T06:51:41.866Z,2.88
2023-05-24T06:54:10.069Z,3.50
2023-05-24T06:56:38.227Z,3.15
2023-05-24T06:59:06.998Z,3.60
2023-05-24T07:01:35.267Z,3.03
2023-05-24T07:04:03.372Z,3.05
2023-05-24T07:06:33.519Z,2.80
2023-05-24T07:09:04.671Z,3.70
2023-05-24T07:11:32.895Z,2.55
2023-05-24T07:14:00.982Z,2.92
2023-05-24T07:16:28.957Z,3.42
2023-05-24T07:18:58.703Z,2.70
2023-05-24T07:21:26.799Z,4.22
2023-05-24T07:23:57.683Z,2.67
2023-05-24T07:26:25.678Z,2.50
2023-05-24T07:28:53.857Z,2.30
2023-05-24T07:31:21.844Z,2.97
2023-05-24T07:33:49.802Z,3.03
2023-05-24T07:36:18.179Z,2.47
2023-05-24T07:38:47.424Z,3.60
2023-05-24T07:41:15.453Z,3.08
2023-05-24T07:43:43.593Z,3.90
2023-05-24T07:46:11.781Z,3.03
2023-05-24T07:48:39.935Z,2.92
2023-05-24T07:51:08.205Z,2.97
2023-05-24T07:53:37.969Z,2.95
2023-05-24T07:56:06.466Z,2.97
2023-05-24T07:58:34.437Z,2.78
2023-05-24T08:01:02.348Z,3.28
2023-05-24T08:03:30.351Z,3.15
2023-05-24T08:05:58.678Z,2.50
2023-05-24T08:08:29.866Z,3.38
2023-05-24T08:10:58.065Z,4.00
2023-05-24T08:13:26.045Z,2.45
2023-05-24T08:15:53.927Z,2.25
2023-05-24T08:18:21.919Z,2.15
2023-05-24T08:20:49.895Z,2.58
2023-05-24T08:23:17.920Z,2.00
2023-05-24T08:25:46.201Z,2.13
2023-05-24T08:28:14.461Z,2.67
2023-05-24T08:30:43.909Z,2.60
2023-05-24T08:33:11.974Z,2.92
2023-05-24T08:35:39.929Z,2.00
2023-05-24T08:38:08.078Z,3.03
2023-05-24T08:40:36.465Z,2.95
2023-05-24T08:43:04.410Z,2.97
2023-05-24T08:45:33.235Z,3.15
2023-05-24T08:48:01.556Z,2.40
2023-05-24T08:50:30.160Z,2.50
2023-05-24T08:52:59.891Z,2.47
2023-05-24T08:55:30.522Z,2.67
2023-05-24T08:58:01.276Z,2.50
2023-05-24T09:00:29.368Z,2.20
2023-05-24T09:02:58.903Z,2.88
2023-05-24T09:05:27.324Z,1.92
2023-05-24T09:07:56.954Z,1.90
2023-05-24T09:10:25.674Z,2.90
2023-05-24T09:12:57.946Z,2.55
2023-05-24T09:15:26.121Z,2.47
2023-05-24T09:17:54.517Z,2.58
2023-05-24T09:20:23.293Z,2.33
2023-05-24T09:22:53.908Z,2.45
2023-05-24T09:25:22.204Z,2.55
2023-05-24T09:27:52.168Z,1.92
2023-05-24T09:30:21.347Z,1.63
2023-05-24T09:32:57.754Z,2.65
2023-05-24T09:35:27.537Z,1.70
2023-05-24T09:37:57.855Z,1.58
2023-05-24T09:40:26.600Z,2.25
2023-05-24T09:43:11.013Z,1.95
2023-05-24T09:45:47.320Z,1.42
2023-05-24T09:48:17.697Z,1.90
2023-05-24T09:50:47.855Z,1.67
2023-05-24T09:53:19.456Z,1.70
2023-05-24T09:55:47.496Z,1.60
2023-05-24T09:58:17.004Z,1.98
2023-05-24T10:00:45.244Z,1.55
2023-05-24T10:03:14.041Z,1.92
2023-05-24T10:05:47.095Z,2.15
2023-05-24T10:08:15.589Z,1.92
2023-05-24T10:10:44.833Z,3.55
2023-05-24T10:13:16.184Z,1.75
2023-05-24T10:15:45.538Z,2.80
2023-05-24T10:21:03.424Z,1.83
2023-05-24T10:23:32.774Z,2.50
2023-05-24T10:26:09.987Z,2.53
2023-05-24T10:29:07.577Z,2.05
2023-05-24T10:31:39.612Z,1.70
2023-05-24T10:34:09.030Z,1.90
2023-05-24T10:36:40.178Z,1.70
2023-05-24T10:39:11.558Z,1.98
2023-05-24T10:41:43.486Z,2.00
2023-05-24T10:41:46.768Z,2.28
2023-05-24T10:44:13.555Z,1.17
2023-05-24T10:47:13.448Z,1.67
2023-05-24T10:49:58.460Z,1.85
2023-05-24T10:52:37.252Z,1.58
2023-05-24T10:55:09.989Z,1.55
2023-05-24T10:57:39.248Z,1.20
2023-05-24T11:03:10.610Z,1.55
2023-05-24T11:05:50.544Z,1.30
2023-05-24T11:08:35.680Z,1.42
2023-05-24T11:11:19.193Z,1.40
2023-05-24T11:14:00.028Z,1.05
2023-05-24T11:16:38.138Z,3.03
2023-05-24T11:19:34.609Z,1.42
2023-05-24T11:22:05.050Z,1.40
2023-05-24T11:24:34.173Z,1.45
2023-05-24T11:27:02.954Z,1.25
2023-05-24T11:29:31.549Z,1.50
2023-05-24T11:32:08.047Z,1.70
2023-05-24T11:34:36.568Z,2.90
2023-05-24T11:37:06.777Z,2.28
2023-05-24T11:39:36.654Z,1.73
2023-05-24T11:42:08.469Z,1.52
2023-05-24T11:44:40.196Z,1.70
2023-05-24T11:47:09.176Z,1.45
2023-05-24T11:49:37.448Z,2.28
2023-05-24T11:52:06.638Z,1.95
2023-05-24T11:54:35.403Z,1.60
2023-05-24T11:57:03.839Z,1.85
2023-05-24T11:59:31.939Z,2.28
2023-05-24T12:02:02.055Z,1.83
2023-05-24T12:04:30.966Z,1.35
2023-05-24T12:06:59.316Z,1.70
2023-05-24T12:09:28.101Z,2.20
2023-05-24T12:11:58.786Z,2.05
2023-05-24T12:14:33.180Z,2.92
2023-05-24T12:17:01.487Z,2.03
2023-05-24T12:19:36.966Z,2.25
2023-05-24T12:22:07.653Z,2.10
2023-05-24T12:24:37.400Z,2.17
2023-05-24T12:27:10.092Z,2.05
2023-05-24T12:29:40.294Z,2.28
2023-05-24T12:32:13.681Z,2.05
2023-05-24T12:34:43.479Z,2.90
2023-05-24T12:37:16.135Z,2.75
2023-05-24T12:39:44.945Z,2.20
2023-05-24T12:42:14.125Z,3.08
2023-05-24T12:44:43.009Z,2.65
2023-05-24T12:47:12.075Z,2.08
2023-05-24T12:49:40.136Z,2.97
2023-05-24T12:52:08.133Z,2.38
2023-05-24T12:54:36.144Z,2.67
2023-05-24T12:57:04.346Z,2.97
2023-05-24T12:59:33.209Z,2.15
2023-05-24T13:02:02.583Z,2.30
2023-05-24T13:04:34.158Z,2.28
2023-05-24T13:07:03.467Z,2.05
2023-05-24T13:09:31.793Z,2.40
2023-05-24T13:11:59.936Z,3.25
2023-05-24T13:14:28.087Z,2.75
2023-05-24T13:16:56.221Z,2.13
2023-05-24T13:19:24.398Z,2.42
2023-05-24T13:21:52.817Z,2.78
2023-05-24T13:24:20.924Z,1.98
2023-05-24T13:26:50.086Z,2.83
2023-05-24T13:29:33.958Z,1.55
2023-05-24T13:32:07.693Z,1.77
2023-05-24T13:34:38.330Z,2.05
2023-05-24T13:37:08.008Z,2.25
2023-05-24T13:39:35.989Z,2.17
2023-05-24T13:42:04.441Z,1.67
2023-05-24T13:44:32.737Z,2.58
2023-05-24T13:47:00.778Z,1.80
2023-05-24T13:49:29.294Z,1.90
2023-05-24T13:51:58.585Z,1.60
2023-05-24T13:54:26.903Z,2.65
2023-05-24T13:56:57.868Z,2.05
2023-05-24T13:59:26.130Z,1.80
2023-05-24T14:01:54.190Z,1.85
2023-05-24T14:04:22.472Z,1.88
2023-05-24T14:06:50.447Z,1.90
2023-05-24T14:09:18.444Z,1.48
2023-05-24T14:11:46.498Z,1.60
2023-05-24T14:16:45.844Z,1.33
2023-05-24T14:19:13.982Z,1.73
2023-05-24T14:21:42.195Z,1.85
2023-05-24T14:24:10.276Z,1.90
2023-05-24T14:26:38.322Z,2.83
2023-05-24T14:29:07.468Z,1.73
2023-05-24T14:31:42.301Z,1.40
2023-05-24T14:34:13.514Z,1.60
2023-05-24T14:39:10.486Z,1.33
2023-05-24T14:41:38.794Z,1.73
2023-05-24T14:44:07.172Z,1.50
2023-05-24T14:46:35.310Z,1.45
2023-05-24T14:49:03.818Z,1.95
2023-05-24T14:51:32.950Z,1.83
2023-05-24T14:54:01.062Z,1.80
2023-05-24T14:56:29.256Z,1.40
2023-05-24T14:59:00.218Z,1.58
2023-05-24T15:01:28.486Z,1.48
2023-05-24T15:03:56.633Z,1.65
2023-05-24T15:06:24.767Z,2.17
2023-05-24T15:08:53.021Z,2.28
2023-05-24T15:11:21.158Z,1.92
2023-05-24T15:13:49.173Z,1.70
2023-05-24T15:16:17.332Z,2.00
2023-05-24T15:18:45.527Z,2.45
2023-05-24T15:21:13.695Z,1.52
2023-05-24T15:23:42.571Z,1.45
2023-05-24T15:26:10.654Z,1.15
2023-05-24T15:28:38.683Z,1.15
2023-05-24T15:31:07.066Z,1.40
2023-05-24T15:33:36.859Z,1.20
2023-05-24T15:36:06.350Z,1.40
2023-05-24T15:38:35.374Z,1.02
2023-05-24T15:41:04.191Z,1.20
2023-05-24T15:43:32.219Z,1.48
2023-05-24T15:46:00.369Z,1.65
2023-05-24T15:48:28.424Z,1.20
2023-05-24T15:51:25.806Z,1.17
2023-05-24T15:53:44.537Z,2.33
2023-05-24T15:56:12.973Z,1.25
2023-05-24T15:58:41.455Z,1.67
2023-05-24T16:01:09.567Z,1.70
2023-05-24T16:03:38.479Z,1.33
2023-05-24T16:06:07.504Z,1.92
2023-05-24T16:08:36.087Z,2.10
2023-05-24T16:11:09.106Z,1.98
2023-05-24T16:13:37.694Z,1.90
2023-05-24T16:16:05.844Z,1.95
2023-05-24T16:18:35.588Z,1.63
2023-05-24T16:21:03.466Z,1.70
2023-05-24T16:23:31.437Z,2.20
2023-05-24T16:26:00.001Z,1.70
2023-05-24T16:28:28.135Z,2.05
2023-05-24T16:30:56.751Z,1.85
2023-05-24T16:33:25.619Z,1.83
2023-05-24T16:35:57.496Z,1.70
2023-05-24T16:38:27.212Z,1.35
2023-05-24T16:40:55.215Z,2.30
2023-05-24T16:43:23.193Z,2.83
2023-05-24T16:45:51.967Z,2.22
2023-05-24T16:48:28.865Z,1.70
2023-05-24T16:50:57.572Z,1.95
2023-05-24T16:53:26.951Z,2.88
2023-05-24T16:55:56.320Z,2.78
2023-05-24T16:58:25.393Z,2.40
2023-05-24T17:00:54.721Z,2.25
2023-05-24T17:03:30.046Z,1.73
2023-05-24T17:06:03.561Z,2.28
2023-05-24T17:08:36.636Z,2.63
2023-05-24T17:11:05.588Z,2.47
2023-05-24T17:13:33.979Z,1.90
2023-05-24T17:16:02.751Z,2.15
2023-05-24T17:18:30.948Z,2.10
2023-05-24T17:21:04.689Z,1.70
2023-05-24T17:23:37.698Z,2.33
2023-05-24T17:26:08.363Z,1.98
2023-05-24T17:28:37.073Z,2.58
2023-05-24T17:31:05.349Z,2.25
2023-05-24T17:33:33.463Z,2.50
2023-05-24T17:36:06.442Z,2.15
2023-05-24T17:38:34.702Z,1.83
2023-05-24T17:41:03.303Z,2.08
2023-05-24T17:43:34.174Z,2.20
2023-05-24T17:46:04.223Z,2.20
2023-05-24T17:48:33.802Z,2.58
2023-05-24T17:51:03.893Z,2.10
2023-05-24T17:53:33.709Z,3.17
2023-05-24T17:56:03.301Z,1.92
2023-05-24T17:58:36.702Z,2.55
2023-05-24T18:01:10.382Z,2.28
2023-05-24T18:03:39.423Z,2.17
2023-05-24T18:06:08.178Z,2.10
2023-05-24T18:08:38.812Z,2.95
2023-05-24T18:11:10.515Z,2.38
2023-05-24T18:13:39.626Z,3.38
2023-05-24T18:16:08.612Z,3.05
2023-05-24T18:18:38.076Z,2.72
2023-05-24T18:21:06.689Z,2.90
2023-05-24T18:23:37.881Z,2.85
2023-05-24T18:31:15.124Z,2.13
2023-05-24T18:33:43.749Z,2.15
2023-05-24T18:36:12.991Z,3.45
2023-05-24T18:38:41.198Z,2.40
2023-05-24T18:41:10.360Z,2.30
2023-05-24T18:43:38.732Z,2.80
2023-05-24T18:46:07.033Z,2.75
2023-05-24T18:48:35.412Z,2.42
2023-05-24T18:51:04.276Z,2.22
2023-05-24T18:53:32.987Z,2.38
2023-05-24T18:56:01.436Z,1.52
2023-05-24T18:58:30.349Z,2.58
2023-05-24T19:00:58.535Z,2.03
2023-05-24T19:03:26.930Z,2.13
2023-05-24T19:05:54.951Z,2.83
2023-05-24T19:08:23.304Z,2.20
2023-05-24T19:10:51.866Z,2.40
2023-05-24T19:13:20.050Z,1.83
2023-05-24T19:15:48.157Z,2.45
2023-05-24T19:18:16.174Z,2.63
2023-05-24T19:20:44.133Z,2.08
2023-05-24T19:23:11.997Z,2.38
2023-05-24T19:25:42.288Z,2.58
2023-05-24T19:28:11.906Z,2.35
2023-05-24T19:30:40.408Z,1.98
2023-05-24T19:33:09.635Z,2.22
2023-05-24T19:35:38.781Z,1.83
2023-05-24T19:38:07.487Z,2.10
2023-05-24T19:40:36.503Z,2.38
2023-05-24T19:43:05.267Z,1.80
2023-05-24T19:45:33.319Z,2.33
2023-05-24T19:48:02.417Z,2.20
2023-05-24T19:50:34.968Z,1.88
2023-05-24T19:53:09.266Z,2.55
2023-05-24T19:55:37.671Z,1.83
2023-05-24T19:58:06.263Z,1.70
2023-05-24T20:00:35.554Z,2.65
2023-05-24T20:03:04.869Z,1.90
2023-05-24T20:05:33.542Z,2.53
2023-05-24T20:08:02.517Z,2.20
2023-05-24T20:10:37.547Z,2.20
2023-05-24T20:13:06.651Z,2.42
2023-05-24T20:15:34.702Z,2.20
2023-05-24T20:18:03.861Z,3.00
2023-05-24T20:20:32.853Z,3.03
2023-05-24T20:23:02.515Z,2.30
2023-05-24T20:25:31.148Z,2.17
2023-05-24T20:27:59.731Z,3.05
2023-05-24T20:30:28.820Z,2.08
2023-05-24T20:32:59.629Z,3.03
2023-05-24T20:35:28.452Z,3.08
2023-05-24T20:37:58.335Z,2.40
2023-05-24T20:40:27.098Z,2.53
2023-05-24T20:42:56.502Z,2.95
2023-05-24T20:45:25.337Z,3.38
2023-05-24T20:47:53.630Z,2.33
2023-05-24T20:50:23.234Z,2.13
2023-05-24T20:52:52.253Z,2.22
2023-05-24T20:55:20.322Z,2.78
2023-05-24T20:57:48.633Z,2.42
2023-05-24T21:00:16.782Z,2.28
2023-05-24T21:02:44.823Z,2.67
2023-05-24T21:05:12.816Z,2.55
2023-05-24T21:07:40.842Z,2.05
2023-05-24T21:10:09.957Z,2.25
2023-05-24T21:12:37.995Z,3.45
2023-05-24T21:15:06.345Z,2.50
2023-05-24T21:17:36.972Z,3.08
2023-05-24T21:20:08.182Z,2.85
2023-05-24T21:22:37.233Z,2.92
2023-05-24T21:25:06.192Z,2.20
2023-05-24T21:27:34.093Z,3.15
2023-05-24T21:30:02.436Z,2.80
2023-05-24T21:32:30.663Z,3.08
2023-05-24T21:34:59.552Z,2.75
2023-05-24T21:37:28.248Z,3.05
2023-05-24T21:39:56.810Z,3.10
2023-05-24T21:42:25.838Z,2.88
2023-05-24T21:44:54.062Z,3.15
2023-05-24T21:47:22.648Z,3.15
2023-05-24T21:49:51.437Z,3.15
2023-05-24T21:52:22.697Z,2.95
2023-05-24T21:54:51.891Z,4.15
2023-05-24T21:57:20.272Z,2.80
2023-05-24T21:59:48.220Z,3.00
2023-05-24T22:02:19.193Z,2.75
2023-05-24T22:04:47.237Z,2.95
2023-05-24T22:07:15.332Z,2.55
2023-05-24T22:09:43.615Z,2.63
2023-05-24T22:12:11.942Z,2.38
2023-05-24T22:14:40.277Z,2.78
2023-05-24T22:17:09.550Z,3.35
2023-05-24T22:19:40.589Z,2.88
2023-05-24T22:22:10.181Z,2.47
2023-05-24T22:24:38.915Z,2.95
2023-05-24T22:27:09.925Z,2.85
2023-05-24T22:29:38.764Z,3.05
2023-05-24T22:32:07.642Z,2.67
2023-05-24T22:34:36.678Z,3.10
2023-05-24T22:37:05.675Z,3.47
2023-05-24T22:39:34.695Z,2.90
2023-05-24T22:42:03.249Z,3.05
2023-05-24T22:44:32.281Z,2.50
2023-05-24T22:47:02.818Z,3.40
2023-05-24T22:49:34.589Z,3.45
2023-05-24T22:52:03.403Z,3.28
2023-05-24T22:54:32.190Z,3.35
2023-05-24T22:57:01.255Z,2.83
2023-05-24T22:59:32.408Z,3.35
2023-05-24T23:04:30.820Z,2.75
2023-05-24T23:06:59.386Z,2.60
2023-05-24T23:09:35.083Z,3.17
2023-05-24T23:12:08.733Z,3.58
2023-05-24T23:14:41.857Z,2.97
2023-05-24T23:17:14.893Z,3.53
2023-05-24T23:19:43.927Z,2.88
2023-05-24T23:22:13.925Z,2.90
2023-05-24T23:24:42.915Z,3.10
2023-05-24T23:27:11.058Z,4.13
2023-05-24T23:29:40.554Z,2.85
2023-05-24T23:32:12.865Z,3.10
2023-05-24T23:34:41.168Z,3.50
2023-05-24T23:37:09.949Z,3.17
2023-05-24T23:39:38.787Z,2.42
2023-05-24T23:42:07.726Z,3.40
2023-05-24T23:44:36.982Z,3.05
2023-05-24T23:47:05.322Z,3.08
2023-05-24T23:49:33.470Z,3.50
2023-05-24T23:52:01.583Z,3.25
2023-05-24T23:54:29.920Z,3.42
2023-05-24T23:56:58.155Z,3.60
2023-05-24T23:59:27.112Z,3.08
